Time;durP1;ratioP1;P1;durP2;ratioP2;P2;SDS_P1;SDS_P2;PMS_P1;PMS_P2;Temp;Humidity;BMP_temperature;BMP_pressure;BME280_temperature;BME280_humidity;BME280_pressure;Samples;Min_cycle;Max_cycle;Signal;HPM_P1;HPM_P2
2023/06/29 03:01:33;;;;;;;2.55;1.05;;;25.30;37.10;;;;;;5425164;23;45858;-62
2023/06/29 03:03:58;;;;;;;2.00;1.15;;;25.30;37.10;;;;;;4929348;28;45083;-57
2023/06/29 03:06:24;;;;;;;1.58;1.05;;;25.30;37.10;;;;;;4966639;28;45726;-60
2023/06/29 03:08:50;;;;;;;5.38;1.20;;;25.30;37.10;;;;;;4966144;28;45311;-63
2023/06/29 03:11:15;;;;;;;1.38;1.13;;;25.30;37.20;;;;;;4953135;28;45092;-58
2023/06/29 03:13:41;;;;;;;3.42;1.25;;;25.30;37.20;;;;;;4967166;28;44721;-59
2023/06/29 03:16:07;;;;;;;2.03;1.20;;;25.30;37.20;;;;;;4960301;28;45429;-60
2023/06/29 03:18:32;;;;;;;3.08;1.38;;;25.20;37.20;;;;;;4961308;28;45983;-59
2023/06/29 03:20:58;;;;;;;3.38;1.40;;;25.20;37.20;;;;;;4966732;28;44727;-59
2023/06/29 03:23:23;;;;;;;5.60;1.48;;;25.20;37.20;;;;;;4966452;28;45186;-60
2023/06/29 03:25:49;;;;;;;3.08;1.35;;;25.20;37.30;;;;;;4964450;28;45180;-57
2023/06/29 03:28:14;;;;;;;1.67;1.10;;;25.20;37.30;;;;;;4970010;28;47043;-59
2023/06/29 03:30:40;;;;;;;2.17;1.33;;;25.20;37.30;;;;;;4960293;28;45202;-61
2023/06/29 03:33:05;;;;;;;1.55;1.10;;;25.20;37.30;;;;;;4962634;28;45207;-58
2023/06/29 03:35:31;;;;;;;1.95;1.10;;;25.20;37.20;;;;;;4964620;28;44990;-58
2023/06/29 03:37:56;;;;;;;2.35;1.35;;;25.20;37.20;;;;;;4963882;28;46287;-61
2023/06/29 03:40:22;;;;;;;1.70;1.08;;;25.20;37.30;;;;;;4965832;28;45606;-57
2023/06/29 03:42:48;;;;;;;4.18;1.20;;;25.10;37.30;;;;;;4968234;28;45198;-59
2023/06/29 03:45:13;;;;;;;3.10;1.48;;;25.10;37.40;;;;;;4956574;28;45543;-62
2023/06/29 03:47:39;;;;;;;2.80;1.17;;;25.10;37.30;;;;;;4974193;28;45868;-59
2023/06/29 03:50:05;;;;;;;1.25;0.90;;;25.10;37.40;;;;;;4988085;28;45282;-60
2023/06/29 03:52:31;;;;;;;3.42;1.45;;;25.10;37.40;;;;;;4984040;28;44906;-60
2023/06/29 03:54:56;;;;;;;2.95;1.48;;;25.10;37.50;;;;;;4983541;28;45470;-57
2023/06/29 03:57:22;;;;;;;4.18;1.33;;;25.10;37.50;;;;;;4981790;28;45850;-57
2023/06/29 03:59:47;;;;;;;4.15;1.50;;;25.10;37.60;;;;;;4988825;28;44989;-57
2023/06/29 04:02:13;;;;;;;1.88;1.17;;;25.10;37.70;;;;;;4969327;28;45204;-59
2023/06/29 04:04:38;;;;;;;2.50;1.23;;;25.00;37.60;;;;;;4986418;28;45507;-59
2023/06/29 04:07:04;;;;;;;2.42;1.45;;;25.10;37.60;;;;;;4984835;28;45274;-59
2023/06/29 04:09:29;;;;;;;2.80;1.42;;;25.10;37.70;;;;;;4989121;28;45251;-58
2023/06/29 04:11:55;;;;;;;2.63;1.30;;;25.10;37.80;;;;;;4981052;28;45871;-60
2023/06/29 04:14:20;;;;;;;2.72;1.40;;;25.00;37.80;;;;;;4990625;28;45494;-59
2023/06/29 04:16:46;;;;;;;2.38;1.58;;;25.00;37.80;;;;;;4979546;28;45978;-58
2023/06/29 04:19:11;;;;;;;2.58;1.35;;;25.00;37.90;;;;;;4988097;28;45401;-60
2023/06/29 04:21:37;;;;;;;3.13;1.48;;;25.00;38.00;;;;;;4980217;28;45300;-58
2023/06/29 04:24:03;;;;;;;2.90;1.33;;;25.00;38.10;;;;;;4989547;28;45373;-59
2023/06/29 04:26:28;;;;;;;2.67;1.67;;;25.00;38.00;;;;;;4966459;28;47043;-60
2023/06/29 04:29:01;;;;;;;3.53;1.33;;;25.00;38.10;;;;;;4987167;28;45358;-59
2023/06/29 04:31:28;;;;;;;2.03;1.40;;;25.00;38.30;;;;;;4978190;28;45123;-60
2023/06/29 04:33:54;;;;;;;2.47;1.45;;;25.00;38.10;;;;;;4981119;28;45309;-59
2023/06/29 04:36:20;;;;;;;3.15;1.65;;;25.00;38.20;;;;;;4985083;28;45813;-58
2023/06/29 04:38:46;;;;;;;2.85;1.70;;;25.00;38.20;;;;;;4988479;28;45549;-58
2023/06/29 04:41:12;;;;;;;1.63;1.45;;;25.00;38.30;;;;;;4967390;28;45337;-60
2023/06/29 04:43:38;;;;;;;4.32;1.77;;;25.00;38.40;;;;;;4991232;28;45272;-60
2023/06/29 04:46:06;;;;;;;2.30;1.70;;;25.00;38.50;;;;;;4979744;28;45350;-61
2023/06/29 04:48:38;;;;;;;3.75;1.80;;;24.90;38.50;;;;;;4983149;28;45720;-61
2023/06/29 04:51:05;;;;;;;2.72;1.88;;;24.90;38.60;;;;;;4978542;28;45278;-60
2023/06/29 04:53:33;;;;;;;2.45;1.83;;;24.90;38.60;;;;;;4990441;28;44793;-58
2023/06/29 04:55:59;;;;;;;2.60;1.77;;;24.90;38.80;;;;;;4950749;28;45176;-61
2023/06/29 04:58:25;;;;;;;2.85;1.92;;;24.80;38.80;;;;;;4990144;28;44962;-61
2023/06/29 05:00:50;;;;;;;6.20;1.95;;;24.80;38.90;;;;;;4973130;28;46962;-61
2023/06/29 05:03:16;;;;;;;2.38;1.40;;;24.80;39.00;;;;;;4987499;28;46459;-61
2023/06/29 05:05:41;;;;;;;5.20;2.15;;;24.80;39.00;;;;;;4986742;28;46108;-61
2023/06/29 05:08:07;;;;;;;3.28;1.67;;;24.70;39.20;;;;;;4987425;28;45483;-61
2023/06/29 05:10:33;;;;;;;3.03;1.75;;;24.80;39.20;;;;;;4967063;28;45807;-62
2023/06/29 05:12:58;;;;;;;3.47;2.00;;;24.70;39.20;;;;;;4990307;28;44803;-60
2023/06/29 05:15:24;;;;;;;2.95;1.38;;;24.80;39.20;;;;;;4978296;28;45975;-61
2023/06/29 05:17:49;;;;;;;2.80;1.70;;;24.70;39.30;;;;;;4987332;28;45569;-60
2023/06/29 05:20:17;;;;;;;3.42;2.03;;;24.80;39.30;;;;;;4965871;28;45538;-60
2023/06/29 05:22:43;;;;;;;3.80;1.77;;;24.80;39.50;;;;;;4986307;28;45577;-59
2023/06/29 05:25:09;;;;;;;4.35;1.63;;;24.80;39.40;;;;;;4987473;28;45633;-62
2023/06/29 05:27:34;;;;;;;1.83;1.48;;;24.80;39.50;;;;;;4984269;28;45801;-61
2023/06/29 05:30:00;;;;;;;5.88;2.10;;;24.80;39.40;;;;;;4978635;28;45657;-61
2023/06/29 05:32:26;;;;;;;5.00;2.25;;;24.80;39.50;;;;;;4956180;28;45188;-60
2023/06/29 05:34:52;;;;;;;5.22;1.73;;;24.80;39.60;;;;;;4970758;28;46949;-60
2023/06/29 05:37:17;;;;;;;4.45;1.90;;;24.80;39.60;;;;;;4977980;28;44931;-60
2023/06/29 05:39:43;;;;;;;2.45;1.60;;;24.90;39.70;;;;;;4984042;28;45428;-61
2023/06/29 05:42:08;;;;;;;3.58;2.15;;;24.90;39.60;;;;;;4982249;28;45394;-59
2023/06/29 05:44:34;;;;;;;3.45;1.90;;;24.90;39.70;;;;;;4968026;28;46293;-60
2023/06/29 05:46:59;;;;;;;2.97;1.83;;;24.90;39.70;;;;;;4974099;28;44906;-60
2023/06/29 05:49:25;;;;;;;2.75;2.10;;;24.90;39.60;;;;;;4985788;28;45404;-61
2023/06/29 05:51:51;;;;;;;3.90;1.83;;;24.90;39.60;;;;;;4985301;28;45386;-60
2023/06/29 05:54:16;;;;;;;6.90;2.13;;;25.00;39.70;;;;;;4969459;28;47061;-61
2023/06/29 05:56:42;;;;;;;6.65;1.73;;;25.00;39.60;;;;;;4983072;28;45434;-62
2023/06/29 05:59:07;;;;;;;2.35;1.63;;;25.00;39.70;;;;;;4985619;28;45217;-60
2023/06/29 06:01:35;;;;;;;2.05;1.77;;;25.00;39.60;;;;;;4978073;28;45647;-60
2023/06/29 06:04:02;;;;;;;4.15;1.80;;;25.10;39.60;;;;;;4969165;28;46495;-60
2023/06/29 06:06:30;;;;;;;3.55;1.80;;;25.10;39.50;;;;;;4966965;28;46117;-63
2023/06/29 06:08:56;;;;;;;3.15;1.48;;;25.20;39.50;;;;;;4994532;28;45463;-58
2023/06/29 06:11:22;;;;;;;4.97;2.05;;;25.20;39.60;;;;;;4983931;28;45652;-58
2023/06/29 06:13:47;;;;;;;3.88;1.95;;;25.20;39.50;;;;;;4989464;28;45931;-61
2023/06/29 06:16:13;;;;;;;3.58;1.50;;;25.30;39.50;;;;;;4961263;28;45933;-60
2023/06/29 06:18:38;;;;;;;6.30;1.83;;;25.30;39.50;;;;;;4989477;28;45251;-59
2023/06/29 06:21:04;;;;;;;3.67;1.85;;;25.30;39.50;;;;;;4988489;28;45456;-61
2023/06/29 06:23:29;;;;;;;5.13;1.98;;;25.40;39.50;;;;;;4978277;28;46452;-59
2023/06/29 06:25:55;;;;;;;3.22;1.65;;;25.40;39.50;;;;;;4984706;28;45233;-60
2023/06/29 06:28:20;;;;;;;2.78;1.75;;;25.40;39.40;;;;;;4993988;28;45516;-60
2023/06/29 06:30:47;;;;;;;4.93;2.05;;;25.40;39.40;;;;;;4964774;28;45586;-60
2023/06/29 06:33:12;;;;;;;2.70;1.67;;;25.40;39.30;;;;;;4986527;28;45788;-60
2023/06/29 06:35:38;;;;;;;4.15;1.98;;;25.40;39.30;;;;;;4983706;28;45199;-60
2023/06/29 06:38:03;;;;;;;4.30;1.80;;;25.50;39.30;;;;;;4985862;28;45416;-61
2023/06/29 06:40:29;;;;;;;2.50;1.50;;;25.50;39.20;;;;;;4983337;28;45260;-61
2023/06/29 06:42:54;;;;;;;2.70;1.55;;;25.50;39.20;;;;;;4991045;28;45965;-61
2023/06/29 06:45:20;;;;;;;3.20;1.67;;;25.60;39.20;;;;;;4967775;28;45442;-59
2023/06/29 06:47:45;;;;;;;3.40;1.55;;;25.70;39.10;;;;;;4972832;28;45293;-58
2023/06/29 06:50:11;;;;;;;2.63;1.80;;;25.70;38.90;;;;;;4989792;28;45159;-58
2023/06/29 06:52:37;;;;;;;4.43;2.33;;;25.80;38.80;;;;;;4980881;28;45855;-61
2023/06/29 06:55:04;;;;;;;3.22;2.03;;;25.80;38.70;;;;;;4985878;28;45152;-65
2023/06/29 06:57:29;;;;;;;3.95;1.42;;;25.80;38.70;;;;;;4989872;28;45336;-67
2023/06/29 06:59:55;;;;;;;2.33;1.50;;;25.90;38.70;;;;;;4976915;28;45224;-66
2023/06/29 07:02:21;;;;;;;3.30;1.38;;;25.90;38.60;;;;;;4981152;28;46161;-68
2023/06/29 07:04:47;;;;;;;4.22;1.67;;;26.00;38.60;;;;;;4971684;28;45340;-63
2023/06/29 07:07:12;;;;;;;4.32;1.77;;;26.10;38.40;;;;;;4983156;28;44980;-66
2023/06/29 07:09:38;;;;;;;6.65;1.90;;;26.20;38.30;;;;;;4992746;28;45414;-66
2023/06/29 07:12:04;;;;;;;3.55;2.20;;;26.40;38.10;;;;;;4988056;28;47202;-64
2023/06/29 07:14:31;;;;;;;3.85;1.67;;;26.50;37.90;;;;;;4957612;28;45541;-66
2023/06/29 07:16:57;;;;;;;4.18;2.08;;;26.60;37.70;;;;;;4965239;28;45950;-68
2023/06/29 07:19:22;;;;;;;5.32;1.70;;;26.70;37.70;;;;;;4992348;28;44979;-68
2023/06/29 07:21:48;;;;;;;5.47;1.67;;;26.80;37.50;;;;;;4971577;28;46296;-66
2023/06/29 07:24:14;;;;;;;4.35;1.85;;;26.80;37.40;;;;;;4988054;28;45464;-67
2023/06/29 07:26:39;;;;;;;6.70;1.83;;;26.80;37.30;;;;;;4987823;28;45538;-67
2023/06/29 07:29:05;;;;;;;4.60;2.05;;;26.90;37.30;;;;;;4948429;28;45161;-67
2023/06/29 07:31:31;;;;;;;7.53;1.77;;;27.00;37.20;;;;;;4963515;28;46330;-63
2023/06/29 07:33:56;;;;;;;3.97;2.17;;;27.10;37.10;;;;;;4992599;28;45035;-69
2023/06/29 07:36:23;;;;;;;4.05;1.85;;;27.10;37.00;;;;;;4987656;28;45513;-68
2023/06/29 07:38:49;;;;;;;2.85;1.73;;;27.20;37.10;;;;;;4978025;28;44670;-66
2023/06/29 07:41:15;;;;;;;3.92;1.70;;;27.20;36.90;;;;;;4965311;28;46768;-68
2023/06/29 07:43:41;;;;;;;3.30;1.85;;;27.30;36.80;;;;;;4971169;28;45448;-65
2023/06/29 07:46:07;;;;;;;5.05;2.10;;;27.40;36.80;;;;;;4979661;28;45771;-67
2023/06/29 07:48:32;;;;;;;6.05;1.60;;;27.40;36.60;;;;;;4972743;28;45063;-66
2023/06/29 07:50:58;;;;;;;6.20;2.10;;;27.50;36.60;;;;;;4985165;28;45234;-67
2023/06/29 07:53:24;;;;;;;7.05;1.88;;;27.50;36.50;;;;;;4956030;28;45310;-69
2023/06/29 07:55:50;;;;;;;5.18;2.17;;;27.60;36.40;;;;;;4980528;28;45620;-67
2023/06/29 07:58:16;;;;;;;2.33;1.73;;;27.60;36.20;;;;;;4991763;28;45330;-65
2023/06/29 08:00:41;;;;;;;4.03;1.80;;;27.70;36.10;;;;;;4965775;28;47293;-67
2023/06/29 08:03:07;;;;;;;4.45;1.70;;;27.70;35.80;;;;;;4992905;28;45263;-68
2023/06/29 08:05:32;;;;;;;3.88;1.80;;;27.70;35.70;;;;;;4987340;28;45298;-72
2023/06/29 08:07:58;;;;;;;3.65;1.60;;;27.70;35.60;;;;;;4992111;28;45506;-69
2023/06/29 08:10:23;;;;;;;3.40;2.00;;;27.80;35.40;;;;;;4988930;28;45975;-66
2023/06/29 08:12:49;;;;;;;4.32;1.80;;;27.80;35.30;;;;;;4991724;28;44942;-67
2023/06/29 08:15:15;;;;;;;3.53;1.95;;;27.80;35.30;;;;;;4986495;28;45606;-70
2023/06/29 08:17:41;;;;;;;4.22;1.73;;;27.80;35.40;;;;;;4988470;28;45062;-65
2023/06/29 08:20:11;;;;;;;4.93;1.95;;;27.70;35.40;;;;;;4987117;28;45950;-73
2023/06/29 08:22:40;;;;;;;3.97;1.70;;;27.70;35.50;;;;;;4975414;28;45274;-70
2023/06/29 08:25:06;;;;;;;4.25;2.05;;;27.70;35.50;;;;;;4974666;28;44867;-73
2023/06/29 08:27:32;;;;;;;2.53;1.50;;;27.70;35.50;;;;;;4976292;28;45191;-65
2023/06/29 08:29:57;;;;;;;2.60;1.25;;;27.70;35.40;;;;;;4994203;28;45978;-66
2023/06/29 08:32:23;;;;;;;3.92;1.50;;;27.60;35.40;;;;;;4983211;28;45061;-65
2023/06/29 08:34:48;;;;;;;4.97;1.55;;;27.60;35.50;;;;;;4961962;28;45106;-66
2023/06/29 08:37:14;;;;;;;5.82;1.65;;;27.60;35.30;;;;;;4987484;28;45650;-66
2023/06/29 08:39:40;;;;;;;3.22;1.52;;;27.60;35.40;;;;;;4995053;28;46333;-63
2023/06/29 08:42:06;;;;;;;3.28;1.33;;;27.60;35.40;;;;;;4988023;28;45605;-68
2023/06/29 08:44:33;;;;;;;3.90;1.25;;;27.70;35.40;;;;;;4959235;28;45418;-66
2023/06/29 08:47:00;;;;;;;2.15;1.10;;;27.70;35.20;;;;;;4979225;28;45202;-69
2023/06/29 08:49:26;;;;;;;4.57;1.25;;;27.70;35.20;;;;;;4983390;28;45358;-67
2023/06/29 08:51:52;;;;;;;2.92;1.13;;;27.60;35.30;;;;;;4967097;28;45332;-68
2023/06/29 08:54:18;;;;;;;2.70;1.30;;;27.60;35.30;;;;;;4961516;28;45638;-66
2023/06/29 08:56:44;;;;;;;1.95;1.40;;;27.60;35.20;;;;;;4973847;28;45687;-65
2023/06/29 08:59:09;;;;;;;2.45;1.13;;;27.60;35.20;;;;;;4975345;28;47147;-67
2023/06/29 09:01:35;;;;;;;3.45;1.20;;;27.60;35.20;;;;;;4969121;28;45943;-69
2023/06/29 09:04:01;;;;;;;3.25;1.20;;;27.60;35.30;;;;;;4963615;28;44964;-66
2023/06/29 09:06:27;;;;;;;2.92;1.02;;;27.70;35.30;;;;;;4968739;28;45168;-64
2023/06/29 09:08:53;;;;;;;2.72;1.20;;;27.70;35.30;;;;;;4998650;28;46154;-66
2023/06/29 09:11:19;;;;;;;2.50;1.20;;;27.70;35.20;;;;;;4970997;28;45478;-69
2023/06/29 09:13:46;;;;;;;3.53;1.20;;;27.70;35.00;;;;;;4992021;28;45011;-66
2023/06/29 09:16:14;;;;;;;1.92;1.00;;;27.70;35.10;;;;;;4964283;28;45240;-63
2023/06/29 09:18:39;;;;;;;3.55;1.08;;;27.80;35.00;;;;;;4992633;28;46192;-67
2023/06/29 09:21:05;;;;;;;1.52;1.00;;;27.80;35.10;;;;;;4968157;28;45093;-68
2023/06/29 09:23:33;;;;;;;2.00;1.27;;;27.80;35.00;;;;;;4991084;28;46485;-68
2023/06/29 09:25:58;;;;;;;1.27;0.98;;;27.90;35.00;;;;;;4974567;28;45189;-70
2023/06/29 09:28:25;;;;;;;2.78;1.10;;;27.90;35.00;;;;;;4992411;28;46956;-66
2023/06/29 09:30:51;;;;;;;2.20;1.05;;;27.90;35.10;;;;;;4987099;28;45388;-71
2023/06/29 09:33:16;;;;;;;2.53;1.02;;;27.90;35.00;;;;;;4968141;28;45474;-64
2023/06/29 09:35:50;;;;;;;1.58;1.20;;;28.00;34.80;;;;;;4986673;28;45683;-61
2023/06/29 09:38:16;;;;;;;2.20;1.25;;;28.10;34.70;;;;;;4981971;28;47088;-61
2023/06/29 09:40:52;;;;;;;0.90;0.88;;;28.10;34.70;;;;;;4967694;28;45051;-59
2023/06/29 09:43:18;;;;;;;1.50;0.95;;;28.20;34.40;;;;;;4992877;28;44693;-59
2023/06/29 09:45:44;;;;;;;1.80;1.23;;;28.20;34.40;;;;;;4984089;28;45003;-60
2023/06/29 09:48:12;;;;;;;2.60;1.10;;;28.20;34.40;;;;;;4976093;28;45856;-60
2023/06/29 09:50:37;;;;;;;1.77;1.00;;;28.30;34.50;;;;;;4963562;28;45181;-66
2023/06/29 09:53:07;;;;;;;1.25;1.00;;;28.30;34.40;;;;;;4991019;28;45370;-62
2023/06/29 09:55:32;;;;;;;3.85;1.00;;;28.40;34.20;;;;;;4972382;28;45469;-62
2023/06/29 09:57:58;;;;;;;1.92;1.10;;;28.40;33.90;;;;;;4975563;28;45236;-59
2023/06/29 10:00:24;;;;;;;2.38;1.25;;;28.50;33.80;;;;;;4969114;28;45829;-58
2023/06/29 10:02:49;;;;;;;3.03;1.00;;;28.50;33.40;;;;;;4985650;28;45305;-62
2023/06/29 10:05:15;;;;;;;3.03;1.20;;;28.50;33.20;;;;;;4986356;28;45037;-60
2023/06/29 10:07:41;;;;;;;4.75;0.70;;;28.50;33.20;;;;;;4990619;28;45966;-60
2023/06/29 10:10:07;;;;;;;2.08;1.00;;;28.50;32.80;;;;;;4954840;28;45406;-63
2023/06/29 10:12:33;;;;;;;1.52;0.90;;;28.50;32.70;;;;;;4957214;28;44829;-58
2023/06/29 10:15:08;;;;;;;4.30;1.25;;;28.50;32.50;;;;;;4991462;28;44931;-61
2023/06/29 10:17:46;;;;;;;1.48;0.98;;;28.60;32.50;;;;;;4986072;28;45468;-60
2023/06/29 10:20:12;;;;;;;2.63;1.00;;;28.50;32.00;;;;;;4969326;28;45309;-59
2023/06/29 10:22:38;;;;;;;2.47;1.00;;;28.60;32.50;;;;;;4975060;28;45478;-61
2023/06/29 10:25:06;;;;;;;1.88;1.00;;;28.60;32.40;;;;;;4972955;28;45191;-62
2023/06/29 10:27:32;;;;;;;1.52;0.75;;;28.60;32.10;;;;;;4971736;28;47340;-61
2023/06/29 10:29:58;;;;;;;2.53;1.10;;;28.60;32.10;;;;;;4959165;28;45593;-59
2023/06/29 10:32:31;;;;;;;3.58;1.15;;;28.60;32.00;;;;;;4950775;28;44970;-59
2023/06/29 10:35:14;;;;;;;;;;;28.70;31.70;;;;;;4974384;28;45429;-61
2023/06/29 10:37:44;;;;;;;1.30;0.85;;;28.60;31.20;;;;;;4973618;28;45882;-61
2023/06/29 10:40:10;;;;;;;0.82;0.70;;;28.70;31.90;;;;;;4983039;28;45414;-60
2023/06/29 10:42:38;;;;;;;1.92;1.00;;;28.70;31.90;;;;;;4987634;28;45275;-60
2023/06/29 10:45:24;;;;;;;1.65;1.10;;;28.70;31.70;;;;;;4990582;28;45672;-63
2023/06/29 10:47:56;;;;;;;2.58;0.63;;;28.70;31.10;;;;;;4970097;28;46578;-60
2023/06/29 10:50:28;;;;;;;1.58;0.93;;;28.80;31.40;;;;;;4983723;28;45706;-60
2023/06/29 10:52:54;;;;;;;0.77;0.73;;;28.80;31.60;;;;;;4989628;28;45543;-58
2023/06/29 10:55:22;;;;;;;1.98;0.90;;;28.80;31.50;;;;;;4958075;28;46782;-61
2023/06/29 10:57:51;;;;;;;0.88;0.77;;;28.90;31.50;;;;;;4994079;28;46235;-59
2023/06/29 11:00:17;;;;;;;1.73;0.80;;;28.90;31.50;;;;;;4988200;28;46074;-59
2023/06/29 11:02:43;;;;;;;2.25;1.00;;;28.90;31.70;;;;;;4990783;28;45640;-58
2023/06/29 11:05:13;;;;;;;1.88;0.82;;;28.90;32.30;;;;;;4991525;28;45305;-61
2023/06/29 11:07:39;;;;;;;1.63;0.80;;;28.90;32.20;;;;;;4975895;28;44992;-60
2023/06/29 11:10:05;;;;;;;2.05;1.05;;;28.90;31.70;;;;;;4994602;28;45377;-64
2023/06/29 11:12:30;;;;;;;1.15;0.80;;;28.90;31.50;;;;;;4993497;28;45324;-61
2023/06/29 11:14:56;;;;;;;1.15;0.90;;;29.00;31.30;;;;;;4987468;28;45163;-60
2023/06/29 11:17:22;;;;;;;2.05;0.82;;;28.90;31.30;;;;;;4981473;28;45882;-60
2023/06/29 11:19:49;;;;;;;1.25;0.90;;;29.00;31.40;;;;;;4943652;28;45282;-62
2023/06/29 11:22:18;;;;;;;1.95;1.05;;;29.00;31.20;;;;;;4988519;28;44765;-62
2023/06/29 11:24:44;;;;;;;1.60;0.98;;;29.00;31.10;;;;;;4995561;28;45550;-61
2023/06/29 11:27:09;;;;;;;1.80;0.95;;;29.10;31.10;;;;;;4985816;28;45498;-61
2023/06/29 11:29:35;;;;;;;3.65;1.10;;;29.10;31.00;;;;;;4997502;28;45237;-60
2023/06/29 11:32:01;;;;;;;3.55;0.80;;;29.10;30.90;;;;;;4967277;28;45299;-63
2023/06/29 11:34:27;;;;;;;2.08;0.98;;;29.10;31.10;;;;;;4995986;28;45586;-65
2023/06/29 11:36:55;;;;;;;3.22;0.90;;;29.10;31.00;;;;;;4982397;28;45594;-62
2023/06/29 11:39:20;;;;;;;2.00;1.13;;;29.20;31.30;;;;;;4973949;28;45877;-60
2023/06/29 11:41:46;;;;;;;1.35;0.90;;;29.20;31.10;;;;;;4988671;28;46284;-59
2023/06/29 11:44:11;;;;;;;1.50;0.90;;;29.20;31.20;;;;;;4958382;28;45527;-61
2023/06/29 11:46:37;;;;;;;1.60;0.98;;;29.20;31.80;;;;;;4962992;28;46885;-62
2023/06/29 11:49:06;;;;;;;1.52;0.77;;;29.20;31.00;;;;;;4992650;28;44625;-62
2023/06/29 11:51:33;;;;;;;1.50;0.80;;;29.30;30.80;;;;;;4988571;28;45184;-61
2023/06/29 11:53:58;;;;;;;2.45;0.90;;;29.30;30.60;;;;;;4976236;28;45374;-61
2023/06/29 11:56:33;;;;;;;2.10;1.00;;;29.40;30.70;;;;;;4971777;28;46546;-60
2023/06/29 11:59:12;;;;;;;1.40;0.85;;;29.40;30.50;;;;;;4977597;28;45643;-61
2023/06/29 12:01:42;;;;;;;1.52;0.93;;;29.40;30.70;;;;;;4978917;28;45617;-60
2023/06/29 12:04:14;;;;;;;3.03;1.00;;;29.40;30.80;;;;;;4992723;28;45056;-62
2023/06/29 12:06:58;;;;;;;2.70;0.98;;;29.40;30.70;;;;;;4985247;28;46378;-61
2023/06/29 12:09:34;;;;;;;1.92;0.70;;;29.40;30.50;;;;;;4992417;28;45436;-62
2023/06/29 12:12:02;;;;;;;4.60;1.00;;;29.50;30.60;;;;;;4987196;28;44996;-62
2023/06/29 12:14:29;;;;;;;1.10;0.90;;;29.50;30.90;;;;;;4994203;28;45999;-60
2023/06/29 12:16:54;;;;;;;2.47;0.88;;;29.50;30.90;;;;;;4984894;28;45258;-62
2023/06/29 12:19:20;;;;;;;1.40;0.77;;;29.50;30.90;;;;;;4989935;28;44808;-61
2023/06/29 12:21:46;;;;;;;6.10;0.70;;;29.50;30.70;;;;;;4985848;28;45363;-60
2023/06/29 12:24:16;;;;;;;2.70;0.98;;;29.60;30.60;;;;;;4995533;28;45153;-56
2023/06/29 12:26:41;;;;;;;3.30;1.00;;;29.60;30.50;;;;;;4986253;28;45049;-58
2023/06/29 12:29:07;;;;;;;2.10;0.73;;;29.50;30.80;;;;;;4996683;28;45585;-62
2023/06/29 12:31:33;;;;;;;1.88;0.80;;;29.60;30.80;;;;;;4978917;28;45159;-61
2023/06/29 12:33:59;;;;;;;1.52;0.70;;;29.60;30.80;;;;;;4993206;28;45349;-60
2023/06/29 12:36:24;;;;;;;1.38;0.90;;;29.60;30.90;;;;;;4972072;28;46138;-60
2023/06/29 12:38:50;;;;;;;2.08;1.20;;;29.60;30.90;;;;;;4993241;28;45319;-62
2023/06/29 12:41:16;;;;;;;2.85;1.00;;;29.60;30.90;;;;;;4985890;28;46814;-64
2023/06/29 12:43:41;;;;;;;2.05;0.82;;;29.70;30.80;;;;;;4993339;28;45518;-60
2023/06/29 12:46:09;;;;;;;2.90;1.02;;;29.70;30.70;;;;;;4979994;28;45824;-62
2023/06/29 12:48:35;;;;;;;1.58;0.90;;;29.60;30.60;;;;;;4990204;28;45323;-61
2023/06/29 12:51:00;;;;;;;2.10;0.80;;;29.70;30.70;;;;;;4988776;28;45249;-62
2023/06/29 12:53:26;;;;;;;1.20;0.90;;;29.70;30.80;;;;;;4990142;28;44913;-61
2023/06/29 12:55:52;;;;;;;2.08;1.23;;;29.70;30.60;;;;;;4983826;28;46133;-59
2023/06/29 12:58:17;;;;;;;4.47;1.05;;;29.70;30.60;;;;;;4983380;28;45237;-61
2023/06/29 13:00:43;;;;;;;1.48;1.10;;;29.70;30.80;;;;;;4980644;28;44974;-60
2023/06/29 13:03:11;;;;;;;1.58;0.73;;;29.70;30.80;;;;;;4981222;28;45284;-62
2023/06/29 13:05:44;;;;;;;3.88;1.10;;;29.70;30.90;;;;;;4988251;28;46083;-61
2023/06/29 13:08:10;;;;;;;1.35;0.80;;;29.70;31.00;;;;;;4990083;28;45508;-61
2023/06/29 13:10:36;;;;;;;2.75;0.73;;;29.70;31.10;;;;;;4970916;28;45307;-61
2023/06/29 13:13:02;;;;;;;2.63;1.00;;;29.70;31.30;;;;;;4988971;28;44837;-57
2023/06/29 13:15:27;;;;;;;2.47;0.93;;;29.70;31.30;;;;;;4981034;28;45487;-65
2023/06/29 13:17:53;;;;;;;3.97;1.10;;;29.80;31.30;;;;;;4991140;28;45532;-61
2023/06/29 13:20:19;;;;;;;1.50;0.80;;;29.80;31.20;;;;;;4989472;28;45422;-64
2023/06/29 13:22:44;;;;;;;2.30;1.27;;;29.80;31.10;;;;;;4990932;28;45414;-61
2023/06/29 13:25:10;;;;;;;1.00;0.90;;;29.80;31.30;;;;;;4983726;28;45878;-63
2023/06/29 13:27:37;;;;;;;1.50;1.00;;;29.80;31.20;;;;;;4985831;28;45342;-61
2023/06/29 13:30:06;;;;;;;1.40;0.90;;;29.80;31.20;;;;;;4988605;28;45290;-66
2023/06/29 13:32:32;;;;;;;2.00;0.80;;;29.80;31.20;;;;;;4961196;28;45337;-61
2023/06/29 13:34:58;;;;;;;1.25;0.98;;;29.80;31.20;;;;;;4980136;28;45481;-61
2023/06/29 13:37:23;;;;;;;1.67;1.00;;;29.90;31.30;;;;;;4981530;28;44648;-61
2023/06/29 13:39:49;;;;;;;1.40;0.90;;;29.90;31.40;;;;;;4984166;28;45255;-60
2023/06/29 13:42:15;;;;;;;3.33;1.17;;;29.90;31.30;;;;;;4980194;28;45468;-61
2023/06/29 13:44:44;;;;;;;2.05;0.77;;;29.90;31.30;;;;;;4985512;28;45227;-59
2023/06/29 13:47:15;;;;;;;2.13;1.20;;;29.90;31.30;;;;;;4976249;28;45846;-61
2023/06/29 13:49:41;;;;;;;2.15;1.10;;;29.90;31.30;;;;;;4969086;28;45473;-60
2023/06/29 13:52:06;;;;;;;1.98;0.88;;;29.90;31.00;;;;;;4979760;28;45815;-59
2023/06/29 13:54:32;;;;;;;2.45;1.08;;;30.00;31.30;;;;;;4985019;28;46194;-61
2023/06/29 13:56:57;;;;;;;3.92;1.17;;;30.00;31.30;;;;;;4965958;28;45248;-62
2023/06/29 13:59:23;;;;;;;0.90;0.85;;;30.00;31.20;;;;;;4990449;28;46095;-62
2023/06/29 14:01:49;;;;;;;1.90;0.93;;;30.00;31.30;;;;;;4959020;28;45310;-60
2023/06/29 14:04:14;;;;;;;2.38;0.85;;;30.00;31.30;;;;;;4983358;28;45028;-61
2023/06/29 14:06:41;;;;;;;0.80;0.73;;;30.00;31.10;;;;;;4968719;28;44811;-60
2023/06/29 14:09:09;;;;;;;3.35;1.00;;;30.00;31.10;;;;;;4988487;28;45283;-61
2023/06/29 14:11:34;;;;;;;1.83;1.02;;;30.00;31.20;;;;;;4979519;28;45613;-59
2023/06/29 14:14:00;;;;;;;1.70;1.02;;;30.00;31.00;;;;;;4986459;28;46010;-59
2023/06/29 14:16:26;;;;;;;3.35;1.10;;;30.00;30.90;;;;;;4973537;28;45381;-59
2023/06/29 14:18:52;;;;;;;1.75;1.05;;;30.10;31.10;;;;;;4985988;28;45282;-61
2023/06/29 14:21:18;;;;;;;1.63;1.20;;;30.00;31.10;;;;;;4978195;28;45657;-63
2023/06/29 14:23:43;;;;;;;4.00;1.02;;;30.10;31.10;;;;;;4966690;28;45312;-61
2023/06/29 14:26:10;;;;;;;1.55;1.10;;;30.10;30.90;;;;;;4983725;28;45321;-62
2023/06/29 14:28:36;;;;;;;2.75;1.00;;;30.10;31.00;;;;;;4988980;28;45345;-63
2023/06/29 14:31:02;;;;;;;1.73;1.15;;;30.10;31.40;;;;;;4968144;28;45266;-61
2023/06/29 14:33:28;;;;;;;3.85;0.95;;;30.10;31.20;;;;;;4985736;28;45578;-61
2023/06/29 14:35:54;;;;;;;2.55;1.30;;;30.20;31.20;;;;;;4983659;28;45041;-64
2023/06/29 14:38:20;;;;;;;1.58;1.00;;;30.20;31.80;;;;;;4988247;28;45433;-62
2023/06/29 14:40:45;;;;;;;0.98;0.77;;;30.20;31.00;;;;;;4968796;28;45633;-63
2023/06/29 14:43:12;;;;;;;1.67;1.08;;;30.20;31.10;;;;;;4991606;28;46750;-62
2023/06/29 14:45:38;;;;;;;1.73;1.17;;;30.20;31.20;;;;;;4986308;28;45384;-62
2023/06/29 14:48:03;;;;;;;2.25;1.15;;;30.20;31.50;;;;;;4991893;28;44967;-63
2023/06/29 14:50:29;;;;;;;1.70;1.23;;;30.20;31.50;;;;;;4986706;28;45264;-64
2023/06/29 14:52:54;;;;;;;2.70;1.38;;;30.20;31.60;;;;;;4991454;28;45287;-61
2023/06/29 14:55:20;;;;;;;3.90;1.10;;;30.20;31.40;;;;;;4986124;28;45465;-58
2023/06/29 14:57:45;;;;;;;1.20;1.00;;;30.20;31.30;;;;;;4988483;28;45627;-62
2023/06/29 15:00:12;;;;;;;1.45;1.00;;;30.20;31.40;;;;;;4985337;28;44730;-59
2023/06/29 15:02:37;;;;;;;1.40;1.05;;;30.20;31.50;;;;;;4966729;28;45361;-60
2023/06/29 15:05:03;;;;;;;1.45;1.00;;;30.20;31.20;;;;;;4989174;28;45438;-65
2023/06/29 15:07:29;;;;;;;1.60;0.93;;;30.20;31.30;;;;;;4968946;28;45882;-66
2023/06/29 15:09:55;;;;;;;1.20;1.00;;;30.20;31.50;;;;;;4973128;28;45264;-62
2023/06/29 15:12:20;;;;;;;1.70;1.10;;;30.20;31.50;;;;;;4986800;28;45401;-62
2023/06/29 15:14:46;;;;;;;2.75;1.35;;;30.20;31.50;;;;;;4988958;28;45981;-60
2023/06/29 15:17:11;;;;;;;1.40;1.13;;;30.20;31.60;;;;;;4978135;28;44913;-63
2023/06/29 15:19:37;;;;;;;2.42;1.30;;;30.20;31.40;;;;;;4990716;28;45720;-61
2023/06/29 15:22:03;;;;;;;4.10;0.82;;;30.20;31.50;;;;;;4984365;28;45932;-60
2023/06/29 15:24:28;;;;;;;3.13;0.98;;;30.20;31.40;;;;;;4988237;28;45281;-60
2023/06/29 15:26:54;;;;;;;1.95;1.10;;;30.20;31.30;;;;;;4984920;28;45165;-60
2023/06/29 15:29:19;;;;;;;1.88;0.98;;;30.20;31.30;;;;;;4987726;28;45811;-61
2023/06/29 15:31:45;;;;;;;1.63;1.17;;;30.20;31.20;;;;;;4976535;28;45499;-61
2023/06/29 15:34:10;;;;;;;2.70;0.98;;;30.20;31.20;;;;;;4971802;28;46231;-61
2023/06/29 15:36:36;;;;;;;1.95;1.42;;;30.20;31.10;;;;;;4962448;28;45442;-62
2023/06/29 15:39:02;;;;;;;2.08;1.27;;;30.20;31.20;;;;;;4983138;28;44796;-63
2023/06/29 15:41:28;;;;;;;1.27;0.98;;;30.10;31.10;;;;;;4981334;28;46011;-60
2023/06/29 15:43:57;;;;;;;1.35;1.15;;;30.10;31.20;;;;;;4982166;28;45312;-61